sensor_id;sensor_type;location;lat;lon;timestamp;temperature;humidity
3550;DHT22;45572;48.804;8.330;2023-05-07T00:01:05;14.10;90.10
3550;DHT22;45572;48.804;8.330;2023-05-07T00:03:33;14.10;90.30
3550;DHT22;45572;48.804;8.330;2023-05-07T00:06:01;14.10;90.10
3550;DHT22;45572;48.804;8.330;2023-05-07T00:08:30;14.20;89.90
3550;DHT22;45572;48.804;8.330;2023-05-07T00:10:58;14.20;89.60
3550;DHT22;45572;48.804;8.330;2023-05-07T00:13:26;14.20;89.50
3550;DHT22;45572;48.804;8.330;2023-05-07T00:15:57;14.10;89.60
3550;DHT22;45572;48.804;8.330;2023-05-07T00:18:24;14.10;89.70
3550;DHT22;45572;48.804;8.330;2023-05-07T00:20:52;14.10;89.90
3550;DHT22;45572;48.804;8.330;2023-05-07T00:23:20;14.00;90.20
3550;DHT22;45572;48.804;8.330;2023-05-07T00:25:51;14.00;89.90
3550;DHT22;45572;48.804;8.330;2023-05-07T00:28:19;14.00;90.10
3550;DHT22;45572;48.804;8.330;2023-05-07T00:30:47;13.90;90.10
3550;DHT22;45572;48.804;8.330;2023-05-07T00:33:15;13.90;90.40
3550;DHT22;45572;48.804;8.330;2023-05-07T00:35:43;13.90;90.50
3550;DHT22;45572;48.804;8.330;2023-05-07T00:38:11;13.80;90.60
3550;DHT22;45572;48.804;8.330;2023-05-07T00:40:39;13.80;90.50
3550;DHT22;45572;48.804;8.330;2023-05-07T00:43:08;13.70;90.70
3550;DHT22;45572;48.804;8.330;2023-05-07T00:45:36;13.80;90.80
3550;DHT22;45572;48.804;8.330;2023-05-07T00:48:05;13.80;90.90
3550;DHT22;45572;48.804;8.330;2023-05-07T00:50:33;13.80;90.80
3550;DHT22;45572;48.804;8.330;2023-05-07T00:53:01;13.80;90.80
3550;DHT22;45572;48.804;8.330;2023-05-07T00:55:29;13.80;90.60
3550;DHT22;45572;48.804;8.330;2023-05-07T00:57:57;13.70;90.50
3550;DHT22;45572;48.804;8.330;2023-05-07T01:00:26;13.70;90.70
3550;DHT22;45572;48.804;8.330;2023-05-07T01:02:55;13.70;90.90
3550;DHT22;45572;48.804;8.330;2023-05-07T01:05:24;13.70;91.10
3550;DHT22;45572;48.804;8.330;2023-05-07T01:07:54;13.70;91.00
3550;DHT22;45572;48.804;8.330;2023-05-07T01:10:23;13.70;90.80
3550;DHT22;45572;48.804;8.330;2023-05-07T01:12:52;13.70;90.60
3550;DHT22;45572;48.804;8.330;2023-05-07T01:15:21;13.70;90.70
3550;DHT22;45572;48.804;8.330;2023-05-07T01:17:51;13.70;90.80
3550;DHT22;45572;48.804;8.330;2023-05-07T01:20:28;13.70;90.90
3550;DHT22;45572;48.804;8.330;2023-05-07T01:22:57;13.70;91.00
3550;DHT22;45572;48.804;8.330;2023-05-07T01:25:27;13.60;91.00
3550;DHT22;45572;48.804;8.330;2023-05-07T01:27:58;13.50;91.20
3550;DHT22;45572;48.804;8.330;2023-05-07T01:30:33;13.50;91.40
3550;DHT22;45572;48.804;8.330;2023-05-07T01:33:08;13.60;91.40
3550;DHT22;45572;48.804;8.330;2023-05-07T01:35:39;13.60;91.40
3550;DHT22;45572;48.804;8.330;2023-05-07T01:38:09;13.60;91.30
3550;DHT22;45572;48.804;8.330;2023-05-07T01:40:38;13.70;91.10
3550;DHT22;45572;48.804;8.330;2023-05-07T01:43:07;13.70;91.30
3550;DHT22;45572;48.804;8.330;2023-05-07T01:45:36;13.70;91.20
3550;DHT22;45572;48.804;8.330;2023-05-07T01:48:06;13.70;91.20
3550;DHT22;45572;48.804;8.330;2023-05-07T01:50:35;13.60;91.20
3550;DHT22;45572;48.804;8.330;2023-05-07T01:53:04;13.60;91.20
3550;DHT22;45572;48.804;8.330;2023-05-07T01:55:33;13.60;91.20
3550;DHT22;45572;48.804;8.330;2023-05-07T01:58:01;13.70;91.10
3550;DHT22;45572;48.804;8.330;2023-05-07T02:00:29;13.70;91.20
3550;DHT22;45572;48.804;8.330;2023-05-07T02:02:58;13.70;91.00
3550;DHT22;45572;48.804;8.330;2023-05-07T02:05:35;13.80;90.90
3550;DHT22;45572;48.804;8.330;2023-05-07T02:08:10;13.60;91.10
3550;DHT22;45572;48.804;8.330;2023-05-07T02:10:39;13.70;91.40
3550;DHT22;45572;48.804;8.330;2023-05-07T02:13:07;13.70;91.10
3550;DHT22;45572;48.804;8.330;2023-05-07T02:15:35;13.70;91.10
3550;DHT22;45572;48.804;8.330;2023-05-07T02:18:05;13.70;91.10
3550;DHT22;45572;48.804;8.330;2023-05-07T02:20:34;13.70;91.00
3550;DHT22;45572;48.804;8.330;2023-05-07T02:23:02;13.60;91.10
3550;DHT22;45572;48.804;8.330;2023-05-07T02:25:30;13.60;91.30
3550;DHT22;45572;48.804;8.330;2023-05-07T02:28:00;13.60;91.50
3550;DHT22;45572;48.804;8.330;2023-05-07T02:30:39;13.50;91.50
3550;DHT22;45572;48.804;8.330;2023-05-07T02:33:08;13.50;91.50
3550;DHT22;45572;48.804;8.330;2023-05-07T02:35:36;13.50;91.50
3550;DHT22;45572;48.804;8.330;2023-05-07T02:38:05;13.50;91.50
3550;DHT22;45572;48.804;8.330;2023-05-07T02:40:34;13.50;91.60
3550;DHT22;45572;48.804;8.330;2023-05-07T02:43:09;13.50;91.60
3550;DHT22;45572;48.804;8.330;2023-05-07T02:45:40;13.50;91.70
3550;DHT22;45572;48.804;8.330;2023-05-07T02:48:08;13.50;91.80
3550;DHT22;45572;48.804;8.330;2023-05-07T02:50:37;13.50;91.90
3550;DHT22;45572;48.804;8.330;2023-05-07T02:53:05;13.60;91.80
3550;DHT22;45572;48.804;8.330;2023-05-07T02:55:33;13.70;91.70
3550;DHT22;45572;48.804;8.330;2023-05-07T02:58:01;13.80;91.20
3550;DHT22;45572;48.804;8.330;2023-05-07T03:00:33;13.80;90.90
3550;DHT22;45572;48.804;8.330;2023-05-07T03:03:17;13.80;90.80
3550;DHT22;45572;48.804;8.330;2023-05-07T03:05:45;13.80;90.80
3550;DHT22;45572;48.804;8.330;2023-05-07T03:08:13;13.70;90.90
3550;DHT22;45572;48.804;8.330;2023-05-07T03:10:40;13.60;91.00
3550;DHT22;45572;48.804;8.330;2023-05-07T03:13:08;13.60;91.30
3550;DHT22;45572;48.804;8.330;2023-05-07T03:15:38;13.60;91.40
3550;DHT22;45572;48.804;8.330;2023-05-07T03:18:07;13.50;91.60
3550;DHT22;45572;48.804;8.330;2023-05-07T03:20:35;13.60;91.60
3550;DHT22;45572;48.804;8.330;2023-05-07T03:23:03;13.60;91.30
3550;DHT22;45572;48.804;8.330;2023-05-07T03:25:31;13.60;91.10
3550;DHT22;45572;48.804;8.330;2023-05-07T03:28:00;13.60;91.00
3550;DHT22;45572;48.804;8.330;2023-05-07T03:30:37;13.60;90.80
3550;DHT22;45572;48.804;8.330;2023-05-07T03:33:05;13.60;91.20
3550;DHT22;45572;48.804;8.330;2023-05-07T03:35:35;13.70;91.10
3550;DHT22;45572;48.804;8.330;2023-05-07T03:38:03;13.70;91.20
3550;DHT22;45572;48.804;8.330;2023-05-07T03:40:34;13.70;91.30
3550;DHT22;45572;48.804;8.330;2023-05-07T03:43:04;13.70;91.00
3550;DHT22;45572;48.804;8.330;2023-05-07T03:45:35;13.60;91.00
3550;DHT22;45572;48.804;8.330;2023-05-07T03:48:12;13.60;91.20
3550;DHT22;45572;48.804;8.330;2023-05-07T03:50:41;13.50;91.30
3550;DHT22;45572;48.804;8.330;2023-05-07T03:53:10;13.40;91.50
3550;DHT22;45572;48.804;8.330;2023-05-07T03:55:39;13.40;91.80
3550;DHT22;45572;48.804;8.330;2023-05-07T03:58:06;13.30;92.00
3550;DHT22;45572;48.804;8.330;2023-05-07T04:00:37;13.30;92.20
3550;DHT22;45572;48.804;8.330;2023-05-07T04:03:21;13.40;92.00
3550;DHT22;45572;48.804;8.330;2023-05-07T04:05:51;13.40;91.90
3550;DHT22;45572;48.804;8.330;2023-05-07T04:08:20;13.30;91.80
3550;DHT22;45572;48.804;8.330;2023-05-07T04:10:54;13.30;91.90
3550;DHT22;45572;48.804;8.330;2023-05-07T04:13:25;13.40;91.90
3550;DHT22;45572;48.804;8.330;2023-05-07T04:15:55;13.40;92.20
3550;DHT22;45572;48.804;8.330;2023-05-07T04:18:26;13.40;92.50
3550;DHT22;45572;48.804;8.330;2023-05-07T04:20:54;13.50;92.20
3550;DHT22;45572;48.804;8.330;2023-05-07T04:23:24;13.50;91.90
3550;DHT22;45572;48.804;8.330;2023-05-07T04:25:52;13.50;92.20
3550;DHT22;45572;48.804;8.330;2023-05-07T04:28:27;13.50;92.10
3550;DHT22;45572;48.804;8.330;2023-05-07T04:30:55;13.60;91.90
3550;DHT22;45572;48.804;8.330;2023-05-07T04:33:26;13.60;91.70
3550;DHT22;45572;48.804;8.330;2023-05-07T04:35:55;13.70;91.80
3550;DHT22;45572;48.804;8.330;2023-05-07T04:38:23;13.60;91.50
3550;DHT22;45572;48.804;8.330;2023-05-07T04:40:53;13.60;91.70
3550;DHT22;45572;48.804;8.330;2023-05-07T04:43:23;13.70;91.50
3550;DHT22;45572;48.804;8.330;2023-05-07T04:45:52;13.70;91.70
3550;DHT22;45572;48.804;8.330;2023-05-07T04:48:24;13.70;91.60
3550;DHT22;45572;48.804;8.330;2023-05-07T04:50:55;13.80;91.40
3550;DHT22;45572;48.804;8.330;2023-05-07T04:53:23;13.80;91.20
3550;DHT22;45572;48.804;8.330;2023-05-07T04:55:55;13.90;91.40
3550;DHT22;45572;48.804;8.330;2023-05-07T04:58:29;13.90;91.40
3550;DHT22;45572;48.804;8.330;2023-05-07T05:00:59;13.90;91.40
3550;DHT22;45572;48.804;8.330;2023-05-07T05:03:30;13.90;91.60
3550;DHT22;45572;48.804;8.330;2023-05-07T05:06:00;13.90;91.60
3550;DHT22;45572;48.804;8.330;2023-05-07T05:08:32;14.00;91.60
3550;DHT22;45572;48.804;8.330;2023-05-07T05:11:02;14.00;91.60
3550;DHT22;45572;48.804;8.330;2023-05-07T05:13:33;14.10;91.90
3550;DHT22;45572;48.804;8.330;2023-05-07T05:16:07;14.30;91.50
3550;DHT22;45572;48.804;8.330;2023-05-07T05:18:35;14.30;91.20
3550;DHT22;45572;48.804;8.330;2023-05-07T05:21:04;14.40;91.10
3550;DHT22;45572;48.804;8.330;2023-05-07T05:23:34;14.50;91.10
3550;DHT22;45572;48.804;8.330;2023-05-07T05:26:02;14.60;91.00
3550;DHT22;45572;48.804;8.330;2023-05-07T05:28:32;14.80;90.40
3550;DHT22;45572;48.804;8.330;2023-05-07T05:31:02;14.90;89.90
3550;DHT22;45572;48.804;8.330;2023-05-07T05:33:34;15.00;89.90
3550;DHT22;45572;48.804;8.330;2023-05-07T05:36:05;15.10;89.80
3550;DHT22;45572;48.804;8.330;2023-05-07T05:38:36;15.20;90.00
3550;DHT22;45572;48.804;8.330;2023-05-07T05:41:04;15.20;89.70
3550;DHT22;45572;48.804;8.330;2023-05-07T05:43:32;15.10;90.00
3550;DHT22;45572;48.804;8.330;2023-05-07T05:46:00;15.10;89.90
3550;DHT22;45572;48.804;8.330;2023-05-07T05:48:29;15.30;89.60
3550;DHT22;45572;48.804;8.330;2023-05-07T05:51:00;15.40;88.10
3550;DHT22;45572;48.804;8.330;2023-05-07T05:53:31;15.50;86.90
3550;DHT22;45572;48.804;8.330;2023-05-07T05:55:59;15.70;86.90
3550;DHT22;45572;48.804;8.330;2023-05-07T05:58:29;15.90;88.20
3550;DHT22;45572;48.804;8.330;2023-05-07T06:01:01;16.30;87.50
3550;DHT22;45572;48.804;8.330;2023-05-07T06:03:30;16.90;85.60
3550;DHT22;45572;48.804;8.330;2023-05-07T06:06:04;18.00;82.50
3550;DHT22;45572;48.804;8.330;2023-05-07T06:08:34;18.90;79.10
3550;DHT22;45572;48.804;8.330;2023-05-07T06:11:03;19.90;75.60
3550;DHT22;45572;48.804;8.330;2023-05-07T06:13:35;21.00;73.20
3550;DHT22;45572;48.804;8.330;2023-05-07T06:16:03;22.50;70.60
3550;DHT22;45572;48.804;8.330;2023-05-07T06:18:31;23.90;68.00
3550;DHT22;45572;48.804;8.330;2023-05-07T06:21:00;24.50;62.80
3550;DHT22;45572;48.804;8.330;2023-05-07T06:23:31;24.80;60.80
3550;DHT22;45572;48.804;8.330;2023-05-07T06:26:02;25.00;62.10
3550;DHT22;45572;48.804;8.330;2023-05-07T06:28:36;25.60;61.20
3550;DHT22;45572;48.804;8.330;2023-05-07T06:31:12;26.00;59.40
3550;DHT22;45572;48.804;8.330;2023-05-07T06:33:43;26.50;58.30
3550;DHT22;45572;48.804;8.330;2023-05-07T06:36:14;27.40;57.10
3550;DHT22;45572;48.804;8.330;2023-05-07T06:38:42;27.40;54.60
3550;DHT22;45572;48.804;8.330;2023-05-07T06:41:11;27.00;56.00
3550;DHT22;45572;48.804;8.330;2023-05-07T06:43:39;28.20;54.70
3550;DHT22;45572;48.804;8.330;2023-05-07T06:46:27;29.10;53.70
3550;DHT22;45572;48.804;8.330;2023-05-07T06:48:55;29.90;51.50
3550;DHT22;45572;48.804;8.330;2023-05-07T06:51:26;29.80;51.00
3550;DHT22;45572;48.804;8.330;2023-05-07T06:53:56;29.00;52.80
3550;DHT22;45572;48.804;8.330;2023-05-07T06:56:25;28.30;54.30
3550;DHT22;45572;48.804;8.330;2023-05-07T06:58:54;27.30;55.70
3550;DHT22;45572;48.804;8.330;2023-05-07T07:01:22;26.30;57.50
3550;DHT22;45572;48.804;8.330;2023-05-07T07:03:50;25.60;60.20
3550;DHT22;45572;48.804;8.330;2023-05-07T07:06:20;25.10;61.60
3550;DHT22;45572;48.804;8.330;2023-05-07T07:08:48;24.60;63.20
3550;DHT22;45572;48.804;8.330;2023-05-07T07:11:17;24.20;64.40
3550;DHT22;45572;48.804;8.330;2023-05-07T07:13:47;24.00;65.00
3550;DHT22;45572;48.804;8.330;2023-05-07T07:16:18;24.30;65.00
3550;DHT22;45572;48.804;8.330;2023-05-07T07:18:47;25.10;64.50
3550;DHT22;45572;48.804;8.330;2023-05-07T07:21:17;25.80;61.90
3550;DHT22;45572;48.804;8.330;2023-05-07T07:23:45;26.40;60.90
3550;DHT22;45572;48.804;8.330;2023-05-07T07:26:14;26.70;60.20
3550;DHT22;45572;48.804;8.330;2023-05-07T07:28:43;26.90;58.90
3550;DHT22;45572;48.804;8.330;2023-05-07T07:31:15;27.40;59.10
3550;DHT22;45572;48.804;8.330;2023-05-07T07:33:46;27.70;57.50
3550;DHT22;45572;48.804;8.330;2023-05-07T07:36:14;28.30;57.40
3550;DHT22;45572;48.804;8.330;2023-05-07T07:38:42;28.80;56.50
3550;DHT22;45572;48.804;8.330;2023-05-07T07:41:12;29.80;55.10
3550;DHT22;45572;48.804;8.330;2023-05-07T07:43:41;30.80;52.20
3550;DHT22;45572;48.804;8.330;2023-05-07T07:46:08;31.60;51.00
3550;DHT22;45572;48.804;8.330;2023-05-07T07:48:39;32.70;49.20
3550;DHT22;45572;48.804;8.330;2023-05-07T07:51:08;33.40;48.80
3550;DHT22;45572;48.804;8.330;2023-05-07T07:53:36;34.00;47.30
3550;DHT22;45572;48.804;8.330;2023-05-07T07:56:05;34.40;47.30
3550;DHT22;45572;48.804;8.330;2023-05-07T07:58:34;35.00;46.10
3550;DHT22;45572;48.804;8.330;2023-05-07T08:01:04;34.50;45.70
3550;DHT22;45572;48.804;8.330;2023-05-07T08:03:33;33.70;46.90
3550;DHT22;45572;48.804;8.330;2023-05-07T08:06:03;33.00;48.40
3550;DHT22;45572;48.804;8.330;2023-05-07T08:08:34;32.30;49.40
3550;DHT22;45572;48.804;8.330;2023-05-07T08:11:03;32.10;50.30
3550;DHT22;45572;48.804;8.330;2023-05-07T08:13:34;32.10;50.50
3550;DHT22;45572;48.804;8.330;2023-05-07T08:16:04;32.30;50.20
3550;DHT22;45572;48.804;8.330;2023-05-07T08:18:33;31.70;49.80
3550;DHT22;45572;48.804;8.330;2023-05-07T08:21:03;31.10;50.90
3550;DHT22;45572;48.804;8.330;2023-05-07T08:23:35;31.00;51.80
3550;DHT22;45572;48.804;8.330;2023-05-07T08:26:05;31.40;50.90
3550;DHT22;45572;48.804;8.330;2023-05-07T08:28:35;32.10;51.00
3550;DHT22;45572;48.804;8.330;2023-05-07T08:31:03;33.00;49.10
3550;DHT22;45572;48.804;8.330;2023-05-07T08:33:35;33.80;47.70
3550;DHT22;45572;48.804;8.330;2023-05-07T08:36:07;34.30;45.90
3550;DHT22;45572;48.804;8.330;2023-05-07T08:38:35;35.10;45.40
3550;DHT22;45572;48.804;8.330;2023-05-07T08:41:03;35.80;44.80
3550;DHT22;45572;48.804;8.330;2023-05-07T08:43:36;36.20;43.70
3550;DHT22;45572;48.804;8.330;2023-05-07T08:46:05;36.30;43.50
3550;DHT22;45572;48.804;8.330;2023-05-07T08:48:41;37.10;42.90
3550;DHT22;45572;48.804;8.330;2023-05-07T08:51:17;37.60;41.90
3550;DHT22;45572;48.804;8.330;2023-05-07T08:53:46;37.90;41.10
3550;DHT22;45572;48.804;8.330;2023-05-07T08:56:20;38.10;41.00
3550;DHT22;45572;48.804;8.330;2023-05-07T08:58:50;38.30;41.30
3550;DHT22;45572;48.804;8.330;2023-05-07T09:01:19;38.50;41.30
3550;DHT22;45572;48.804;8.330;2023-05-07T09:03:51;38.80;40.40
3550;DHT22;45572;48.804;8.330;2023-05-07T09:06:23;39.10;40.00
3550;DHT22;45572;48.804;8.330;2023-05-07T09:08:54;39.30;39.30
3550;DHT22;45572;48.804;8.330;2023-05-07T09:11:27;39.30;40.20
3550;DHT22;45572;48.804;8.330;2023-05-07T09:13:58;39.50;39.00
3550;DHT22;45572;48.804;8.330;2023-05-07T09:16:32;39.30;39.40
3550;DHT22;45572;48.804;8.330;2023-05-07T09:19:00;39.50;40.00
3550;DHT22;45572;48.804;8.330;2023-05-07T09:21:29;39.60;39.30
3550;DHT22;45572;48.804;8.330;2023-05-07T09:24:00;39.50;39.30
3550;DHT22;45572;48.804;8.330;2023-05-07T09:26:35;39.60;39.20
3550;DHT22;45572;48.804;8.330;2023-05-07T09:29:04;39.30;39.30
3550;DHT22;45572;48.804;8.330;2023-05-07T09:31:36;39.30;40.60
3550;DHT22;45572;48.804;8.330;2023-05-07T09:34:07;39.50;39.80
3550;DHT22;45572;48.804;8.330;2023-05-07T09:36:39;39.70;38.90
3550;DHT22;45572;48.804;8.330;2023-05-07T09:39:08;39.60;39.80
3550;DHT22;45572;48.804;8.330;2023-05-07T09:41:43;39.60;39.20
3550;DHT22;45572;48.804;8.330;2023-05-07T09:44:24;39.60;39.10
3550;DHT22;45572;48.804;8.330;2023-05-07T09:46:53;39.60;39.40
3550;DHT22;45572;48.804;8.330;2023-05-07T09:49:30;39.40;39.90
3550;DHT22;45572;48.804;8.330;2023-05-07T09:52:06;39.40;39.70
3550;DHT22;45572;48.804;8.330;2023-05-07T09:54:47;39.40;37.80
3550;DHT22;45572;48.804;8.330;2023-05-07T09:57:19;39.30;39.70
3550;DHT22;45572;48.804;8.330;2023-05-07T09:59:53;39.40;39.60
3550;DHT22;45572;48.804;8.330;2023-05-07T10:02:23;39.80;39.70
3550;DHT22;45572;48.804;8.330;2023-05-07T10:04:57;39.70;39.10
3550;DHT22;45572;48.804;8.330;2023-05-07T10:07:32;40.30;39.00
3550;DHT22;45572;48.804;8.330;2023-05-07T10:10:06;40.70;37.50
3550;DHT22;45572;48.804;8.330;2023-05-07T10:12:42;40.40;37.90
3550;DHT22;45572;48.804;8.330;2023-05-07T10:15:18;40.20;38.30
3550;DHT22;45572;48.804;8.330;2023-05-07T10:17:51;40.20;38.80
3550;DHT22;45572;48.804;8.330;2023-05-07T10:20:23;39.90;38.30
3550;DHT22;45572;48.804;8.330;2023-05-07T10:22:56;39.50;38.90
3550;DHT22;45572;48.804;8.330;2023-05-07T10:25:35;39.70;39.00
3550;DHT22;45572;48.804;8.330;2023-05-07T10:28:13;39.80;39.00
3550;DHT22;45572;48.804;8.330;2023-05-07T10:30:51;40.10;39.80
3550;DHT22;45572;48.804;8.330;2023-05-07T10:33:29;40.30;38.80
3550;DHT22;45572;48.804;8.330;2023-05-07T10:36:00;40.00;40.20
3550;DHT22;45572;48.804;8.330;2023-05-07T10:38:33;40.00;38.80
3550;DHT22;45572;48.804;8.330;2023-05-07T10:41:02;40.20;38.30
3550;DHT22;45572;48.804;8.330;2023-05-07T10:43:42;39.80;38.60
3550;DHT22;45572;48.804;8.330;2023-05-07T10:46:19;38.80;38.40
3550;DHT22;45572;48.804;8.330;2023-05-07T10:49:10;37.50;40.00
3550;DHT22;45572;48.804;8.330;2023-05-07T10:52:14;36.60;41.50
3550;DHT22;45572;48.804;8.330;2023-05-07T10:55:19;36.80;41.40
3550;DHT22;45572;48.804;8.330;2023-05-07T10:58:23;37.10;40.30
3550;DHT22;45572;48.804;8.330;2023-05-07T11:01:03;37.20;39.80
3550;DHT22;45572;48.804;8.330;2023-05-07T11:04:12;36.80;42.50
3550;DHT22;45572;48.804;8.330;2023-05-07T11:10:01;36.10;43.70
3550;DHT22;45572;48.804;8.330;2023-05-07T11:12:52;36.40;43.10
3550;DHT22;45572;48.804;8.330;2023-05-07T11:15:35;36.40;43.10
3550;DHT22;45572;48.804;8.330;2023-05-07T11:18:07;36.60;43.00
3550;DHT22;45572;48.804;8.330;2023-05-07T11:20:45;37.10;43.60
3550;DHT22;45572;48.804;8.330;2023-05-07T11:26:30;38.20;40.80
3550;DHT22;45572;48.804;8.330;2023-05-07T11:28:59;38.30;40.40
3550;DHT22;45572;48.804;8.330;2023-05-07T11:31:28;37.90;41.50
3550;DHT22;45572;48.804;8.330;2023-05-07T11:34:00;37.60;41.70
3550;DHT22;45572;48.804;8.330;2023-05-07T11:36:31;37.30;41.40
3550;DHT22;45572;48.804;8.330;2023-05-07T11:39:02;36.20;42.30
3550;DHT22;45572;48.804;8.330;2023-05-07T11:41:35;35.50;43.70
3550;DHT22;45572;48.804;8.330;2023-05-07T11:44:04;34.60;44.60
3550;DHT22;45572;48.804;8.330;2023-05-07T11:46:32;34.50;45.50
3550;DHT22;45572;48.804;8.330;2023-05-07T11:49:02;34.30;45.20
3550;DHT22;45572;48.804;8.330;2023-05-07T11:51:30;34.20;44.90
3550;DHT22;45572;48.804;8.330;2023-05-07T11:53:59;34.10;44.80
3550;DHT22;45572;48.804;8.330;2023-05-07T11:56:35;34.10;45.80
3550;DHT22;45572;48.804;8.330;2023-05-07T11:59:03;34.10;45.80
3550;DHT22;45572;48.804;8.330;2023-05-07T12:01:30;34.20;45.40
3550;DHT22;45572;48.804;8.330;2023-05-07T12:03:58;34.50;46.50
3550;DHT22;45572;48.804;8.330;2023-05-07T12:06:30;34.50;46.00
3550;DHT22;45572;48.804;8.330;2023-05-07T12:08:58;34.70;44.80
3550;DHT22;45572;48.804;8.330;2023-05-07T12:11:26;34.10;44.90
3550;DHT22;45572;48.804;8.330;2023-05-07T12:13:55;34.00;48.10
3550;DHT22;45572;48.804;8.330;2023-05-07T12:16:26;34.40;46.20
3550;DHT22;45572;48.804;8.330;2023-05-07T12:18:54;34.80;44.70
3550;DHT22;45572;48.804;8.330;2023-05-07T12:21:23;35.00;45.00
3550;DHT22;45572;48.804;8.330;2023-05-07T12:23:51;34.70;45.90
3550;DHT22;45572;48.804;8.330;2023-05-07T12:26:20;34.50;45.60
3550;DHT22;45572;48.804;8.330;2023-05-07T12:28:50;34.40;45.10
3550;DHT22;45572;48.804;8.330;2023-05-07T12:31:19;34.00;46.30
3550;DHT22;45572;48.804;8.330;2023-05-07T12:33:47;33.90;47.10
3550;DHT22;45572;48.804;8.330;2023-05-07T12:36:15;33.00;47.40
3550;DHT22;45572;48.804;8.330;2023-05-07T12:38:43;32.50;49.30
3550;DHT22;45572;48.804;8.330;2023-05-07T12:41:11;32.00;49.20
3550;DHT22;45572;48.804;8.330;2023-05-07T12:43:39;31.60;48.80
3550;DHT22;45572;48.804;8.330;2023-05-07T12:46:07;30.60;52.40
3550;DHT22;45572;48.804;8.330;2023-05-07T12:48:37;30.50;53.10
3550;DHT22;45572;48.804;8.330;2023-05-07T12:51:06;30.20;53.20
3550;DHT22;45572;48.804;8.330;2023-05-07T12:53:40;30.10;52.60
3550;DHT22;45572;48.804;8.330;2023-05-07T12:56:09;29.60;52.40
3550;DHT22;45572;48.804;8.330;2023-05-07T12:58:37;29.10;56.30
3550;DHT22;45572;48.804;8.330;2023-05-07T13:01:07;29.10;56.70
3550;DHT22;45572;48.804;8.330;2023-05-07T13:03:38;28.70;56.10
3550;DHT22;45572;48.804;8.330;2023-05-07T13:06:09;28.70;56.10
3550;DHT22;45572;48.804;8.330;2023-05-07T13:08:41;28.50;56.00
3550;DHT22;45572;48.804;8.330;2023-05-07T13:11:12;27.50;58.80
3550;DHT22;45572;48.804;8.330;2023-05-07T13:13:40;27.20;58.80
3550;DHT22;45572;48.804;8.330;2023-05-07T13:16:10;27.10;60.30
3550;DHT22;45572;48.804;8.330;2023-05-07T13:18:40;26.30;58.00
3550;DHT22;45572;48.804;8.330;2023-05-07T13:21:14;25.30;59.20
3550;DHT22;45572;48.804;8.330;2023-05-07T13:23:42;24.40;58.90
3550;DHT22;45572;48.804;8.330;2023-05-07T13:26:10;23.70;60.90
3550;DHT22;45572;48.804;8.330;2023-05-07T13:28:52;23.20;61.30
3550;DHT22;45572;48.804;8.330;2023-05-07T13:31:21;22.90;61.70
3550;DHT22;45572;48.804;8.330;2023-05-07T13:33:50;22.70;60.60
3550;DHT22;45572;48.804;8.330;2023-05-07T13:36:19;22.40;61.10
3550;DHT22;45572;48.804;8.330;2023-05-07T13:38:47;22.20;62.70
3550;DHT22;45572;48.804;8.330;2023-05-07T13:41:15;22.20;62.00
3550;DHT22;45572;48.804;8.330;2023-05-07T13:43:43;21.90;62.80
3550;DHT22;45572;48.804;8.330;2023-05-07T13:46:10;21.80;64.20
3550;DHT22;45572;48.804;8.330;2023-05-07T13:48:38;21.80;65.20
3550;DHT22;45572;48.804;8.330;2023-05-07T13:51:08;21.80;65.60
3550;DHT22;45572;48.804;8.330;2023-05-07T13:53:37;21.50;67.60
3550;DHT22;45572;48.804;8.330;2023-05-07T13:56:06;21.20;68.90
3550;DHT22;45572;48.804;8.330;2023-05-07T13:58:36;21.10;70.10
3550;DHT22;45572;48.804;8.330;2023-05-07T14:01:25;20.80;71.20
3550;DHT22;45572;48.804;8.330;2023-05-07T14:03:56;20.70;72.60
3550;DHT22;45572;48.804;8.330;2023-05-07T14:06:29;20.70;72.90
3550;DHT22;45572;48.804;8.330;2023-05-07T14:08:57;20.50;73.60
3550;DHT22;45572;48.804;8.330;2023-05-07T14:11:28;20.40;74.00
3550;DHT22;45572;48.804;8.330;2023-05-07T14:14:03;20.60;73.90
3550;DHT22;45572;48.804;8.330;2023-05-07T14:16:32;20.80;74.00
3550;DHT22;45572;48.804;8.330;2023-05-07T14:19:00;21.00;74.20
3550;DHT22;45572;48.804;8.330;2023-05-07T14:21:30;20.90;73.70
3550;DHT22;45572;48.804;8.330;2023-05-07T14:23:58;21.10;73.60
3550;DHT22;45572;48.804;8.330;2023-05-07T14:26:26;21.10;74.20
3550;DHT22;45572;48.804;8.330;2023-05-07T14:28:56;21.10;72.80
3550;DHT22;45572;48.804;8.330;2023-05-07T14:31:25;21.00;73.40
3550;DHT22;45572;48.804;8.330;2023-05-07T14:33:53;21.00;73.40
3550;DHT22;45572;48.804;8.330;2023-05-07T14:36:21;20.90;73.60
3550;DHT22;45572;48.804;8.330;2023-05-07T14:38:52;21.10;73.90
3550;DHT22;45572;48.804;8.330;2023-05-07T14:41:21;21.10;74.20
3550;DHT22;45572;48.804;8.330;2023-05-07T14:43:49;21.10;74.20
3550;DHT22;45572;48.804;8.330;2023-05-07T14:46:18;21.20;74.50
3550;DHT22;45572;48.804;8.330;2023-05-07T14:48:47;21.30;73.80
3550;DHT22;45572;48.804;8.330;2023-05-07T14:51:14;21.30;73.20
3550;DHT22;45572;48.804;8.330;2023-05-07T14:53:42;21.00;74.10
3550;DHT22;45572;48.804;8.330;2023-05-07T14:56:12;21.00;74.70
3550;DHT22;45572;48.804;8.330;2023-05-07T14:58:40;21.10;74.20
3550;DHT22;45572;48.804;8.330;2023-05-07T15:01:08;20.80;75.10
3550;DHT22;45572;48.804;8.330;2023-05-07T15:03:39;20.90;76.00
3550;DHT22;45572;48.804;8.330;2023-05-07T15:06:07;21.10;73.60
3550;DHT22;45572;48.804;8.330;2023-05-07T15:08:35;21.30;73.70
3550;DHT22;45572;48.804;8.330;2023-05-07T15:11:03;21.20;73.20
3550;DHT22;45572;48.804;8.330;2023-05-07T15:13:32;21.30;72.20
3550;DHT22;45572;48.804;8.330;2023-05-07T15:16:03;21.20;73.40
3550;DHT22;45572;48.804;8.330;2023-05-07T15:18:31;21.10;74.20
3550;DHT22;45572;48.804;8.330;2023-05-07T15:21:02;21.30;73.60
3550;DHT22;45572;48.804;8.330;2023-05-07T15:23:31;21.20;73.60
3550;DHT22;45572;48.804;8.330;2023-05-07T15:25:59;21.00;73.70
3550;DHT22;45572;48.804;8.330;2023-05-07T15:28:28;20.90;74.60
3550;DHT22;45572;48.804;8.330;2023-05-07T15:30:59;20.70;74.90
3550;DHT22;45572;48.804;8.330;2023-05-07T15:33:27;20.80;74.90
3550;DHT22;45572;48.804;8.330;2023-05-07T15:35:54;20.70;74.50
3550;DHT22;45572;48.804;8.330;2023-05-07T15:38:26;20.60;75.10
3550;DHT22;45572;48.804;8.330;2023-05-07T15:40:54;20.80;74.70
3550;DHT22;45572;48.804;8.330;2023-05-07T15:43:22;21.00;74.50
3550;DHT22;45572;48.804;8.330;2023-05-07T15:45:52;20.90;74.40
3550;DHT22;45572;48.804;8.330;2023-05-07T15:48:21;20.80;73.80
3550;DHT22;45572;48.804;8.330;2023-05-07T15:50:49;20.80;74.70
3550;DHT22;45572;48.804;8.330;2023-05-07T15:53:18;20.50;75.70
3550;DHT22;45572;48.804;8.330;2023-05-07T15:55:47;20.20;77.80
3550;DHT22;45572;48.804;8.330;2023-05-07T15:58:15;20.10;79.30
3550;DHT22;45572;48.804;8.330;2023-05-07T16:00:45;19.90;80.70
3550;DHT22;45572;48.804;8.330;2023-05-07T16:03:16;19.70;82.60
3550;DHT22;45572;48.804;8.330;2023-05-07T16:05:48;19.60;83.00
3550;DHT22;45572;48.804;8.330;2023-05-07T16:08:18;19.40;84.20
3550;DHT22;45572;48.804;8.330;2023-05-07T16:10:46;19.00;85.30
3550;DHT22;45572;48.804;8.330;2023-05-07T16:13:14;18.80;86.60